createdAt,value
2023-04-05T00:00:01.076Z,55.30
2023-04-05T00:02:29.837Z,55.30
2023-04-05T00:04:58.266Z,55.30
2023-04-05T00:07:26.502Z,55.40
2023-04-05T00:09:53.869Z,55.50
2023-04-05T00:12:21.096Z,55.50
2023-04-05T00:14:48.435Z,55.70
2023-04-05T00:17:15.471Z,55.80
2023-04-05T00:19:43.274Z,55.70
2023-04-05T00:22:10.649Z,55.60
2023-04-05T00:24:42.043Z,55.70
2023-04-05T00:27:09.145Z,55.60
2023-04-05T00:29:36.373Z,55.70
2023-04-05T00:32:04.797Z,55.60
2023-04-05T00:34:33.608Z,55.70
2023-04-05T00:37:00.826Z,56.20
2023-04-05T00:39:27.867Z,56.40
2023-04-05T00:41:56.058Z,56.20
2023-04-05T00:44:23.072Z,56.10
2023-04-05T00:46:50.048Z,56.00
2023-04-05T00:49:17.911Z,56.10
2023-04-05T00:51:45.859Z,56.50
2023-04-05T00:54:14.027Z,56.60
2023-04-05T00:56:41.629Z,56.70
2023-04-05T00:59:08.898Z,56.40
2023-04-05T01:01:40.324Z,56.60
2023-04-05T01:04:11.525Z,56.50
2023-04-05T01:07:05.148Z,56.70
2023-04-05T01:09:35.134Z,56.60
2023-04-05T01:12:09.155Z,56.60
2023-04-05T01:14:53.034Z,56.50
2023-04-05T01:17:22.749Z,56.50
2023-04-05T01:19:59.437Z,56.70
2023-04-05T01:22:40.414Z,56.60
2023-04-05T01:25:30.788Z,56.60
2023-04-05T01:28:35.766Z,56.80
2023-04-05T01:31:32.322Z,56.80
2023-04-05T01:34:07.221Z,56.70
2023-04-05T01:36:43.605Z,56.80
2023-04-05T01:39:14.856Z,56.80
2023-04-05T01:41:41.922Z,57.00
2023-04-05T01:44:09.078Z,57.20
2023-04-05T01:46:36.618Z,57.00
2023-04-05T01:49:05.697Z,57.20
2023-04-05T01:51:33.313Z,57.10
2023-04-05T01:54:00.662Z,57.70
2023-04-05T01:56:27.592Z,57.30
2023-04-05T01:58:54.613Z,57.30
2023-04-05T02:01:21.638Z,57.20
2023-04-05T02:03:48.790Z,57.30
2023-04-05T02:06:16.380Z,58.10
2023-04-05T02:08:43.441Z,57.30
2023-04-05T02:11:11.590Z,57.20
2023-04-05T02:13:40.032Z,57.50
2023-04-05T02:16:06.939Z,57.30
2023-04-05T02:18:33.962Z,57.20
2023-04-05T02:21:08.595Z,57.10
2023-04-05T02:23:37.916Z,56.80
2023-04-05T02:26:05.476Z,57.60
2023-04-05T02:28:32.413Z,57.30
2023-04-05T02:30:59.431Z,57.50
2023-04-05T02:33:27.665Z,57.50
2023-04-05T02:35:54.713Z,57.70
2023-04-05T02:38:21.928Z,57.60
2023-04-05T02:40:52.107Z,58.30
2023-04-05T02:43:19.065Z,57.70
2023-04-05T02:45:47.058Z,57.50
2023-04-05T02:48:14.980Z,57.60
2023-04-05T02:50:42.680Z,57.50
2023-04-05T02:53:10.013Z,57.90
2023-04-05T02:55:37.164Z,57.70
2023-04-05T02:58:04.129Z,57.60
2023-04-05T03:00:40.830Z,57.70
2023-04-05T03:03:09.554Z,57.40
2023-04-05T03:05:42.298Z,57.60
2023-04-05T03:08:18.647Z,57.80
2023-04-05T03:10:54.063Z,57.70
2023-04-05T03:13:21.120Z,57.80
2023-04-05T03:15:48.707Z,58.00
2023-04-05T03:18:18.308Z,57.90
2023-04-05T03:20:49.909Z,57.70
2023-04-05T03:23:20.996Z,57.90
2023-04-05T03:25:55.153Z,57.90
2023-04-05T03:28:25.681Z,58.00
2023-04-05T03:30:56.388Z,58.00
2023-04-05T03:33:23.488Z,58.00
2023-04-05T03:35:53.837Z,58.40
2023-04-05T03:38:21.707Z,58.20
2023-04-05T03:41:08.521Z,58.00
2023-04-05T03:43:36.473Z,58.00
2023-04-05T03:46:03.589Z,57.90
2023-04-05T03:48:30.822Z,58.10
2023-04-05T03:50:57.774Z,58.10
2023-04-05T03:53:24.825Z,58.20
2023-04-05T03:55:55.833Z,58.50
2023-04-05T03:58:42.038Z,57.70
2023-04-05T04:01:10.740Z,58.00
2023-04-05T04:03:38.196Z,58.10
2023-04-05T04:06:06.779Z,58.30
2023-04-05T04:08:34.188Z,58.40
2023-04-05T04:11:01.519Z,58.40
2023-04-05T04:13:32.657Z,58.30
2023-04-05T04:16:14.202Z,58.30
2023-04-05T04:19:04.208Z,58.10
2023-04-05T04:21:51.138Z,58.60
2023-04-05T04:24:32.721Z,58.70
2023-04-05T04:27:32.484Z,58.90
2023-04-05T04:30:18.304Z,58.70
2023-04-05T04:33:07.389Z,58.40
2023-04-05T04:35:46.817Z,58.40
2023-04-05T04:38:34.979Z,58.50
2023-04-05T04:41:29.356Z,57.90
2023-04-05T04:44:31.399Z,58.40
2023-04-05T04:47:23.069Z,58.10
2023-04-05T04:50:20.379Z,57.60
2023-04-05T04:52:48.332Z,57.90
2023-04-05T04:55:15.370Z,57.90
2023-04-05T04:57:46.021Z,57.60
2023-04-05T05:00:15.410Z,58.10
2023-04-05T05:02:44.180Z,57.00
2023-04-05T05:05:14.590Z,57.70
2023-04-05T05:07:42.408Z,58.30
2023-04-05T05:10:11.442Z,58.20
2023-04-05T05:12:41.125Z,58.20
2023-04-05T05:15:12.238Z,58.40
2023-04-05T05:17:39.679Z,58.10
2023-04-05T05:20:11.253Z,58.00
2023-04-05T05:22:42.491Z,58.10
2023-04-05T05:25:12.396Z,58.20
2023-04-05T05:27:39.681Z,57.90
2023-04-05T05:30:07.144Z,57.30
2023-04-05T05:32:34.178Z,57.50
2023-04-05T05:35:01.091Z,58.30
2023-04-05T05:37:32.317Z,57.60
2023-04-05T05:39:59.883Z,57.50
2023-04-05T05:42:27.406Z,58.30
2023-04-05T05:44:54.498Z,57.90
2023-04-05T05:47:21.837Z,57.20
2023-04-05T05:49:49.700Z,57.40
2023-04-05T05:52:16.966Z,57.00
2023-04-05T05:54:43.911Z,57.50
2023-04-05T05:57:10.889Z,56.30
2023-04-05T05:59:37.821Z,57.30
2023-04-05T06:02:04.740Z,57.50
2023-04-05T06:04:31.873Z,57.00
2023-04-05T06:06:59.103Z,56.80
2023-04-05T06:09:26.423Z,57.90
2023-04-05T06:11:57.018Z,57.70
2023-04-05T06:14:25.587Z,57.10
2023-04-05T06:16:52.845Z,57.20
2023-04-05T06:19:19.844Z,57.50
2023-04-05T06:21:46.972Z,57.40
2023-04-05T06:24:13.948Z,57.90
2023-04-05T06:26:41.325Z,57.70
2023-04-05T06:29:08.294Z,56.90
2023-04-05T06:31:36.710Z,58.20
2023-04-05T06:34:03.851Z,57.90
2023-04-05T06:36:34.578Z,57.50
2023-04-05T06:39:01.954Z,57.60
2023-04-05T06:41:28.873Z,57.90
2023-04-05T06:43:56.593Z,57.20
2023-04-05T06:46:24.743Z,57.50
2023-04-05T06:48:52.704Z,57.40
2023-04-05T06:51:20.122Z,56.80
2023-04-05T06:53:47.611Z,57.40
2023-04-05T06:56:14.519Z,57.10
2023-04-05T06:58:41.831Z,57.30
2023-04-05T07:01:08.986Z,57.10
2023-04-05T07:03:36.203Z,56.90
2023-04-05T07:06:04.397Z,56.30
2023-04-05T07:08:32.999Z,56.20
2023-04-05T07:10:59.901Z,56.20
2023-04-05T07:13:26.989Z,56.00
2023-04-05T07:16:01.431Z,55.90
2023-04-05T07:18:29.917Z,55.60
2023-04-05T07:21:00.892Z,55.70
2023-04-05T07:23:28.711Z,55.40
2023-04-05T07:26:00.499Z,54.90
2023-04-05T07:28:27.646Z,54.90
2023-04-05T07:30:54.600Z,54.80
2023-04-05T07:33:21.521Z,54.60
2023-04-05T07:35:56.673Z,54.50
2023-04-05T07:38:23.948Z,53.90
2023-04-05T07:40:51.469Z,54.30
2023-04-05T07:43:19.413Z,53.10
2023-04-05T07:45:46.437Z,53.20
2023-04-05T07:48:13.419Z,52.60
2023-04-05T07:50:42.427Z,52.60
2023-04-05T07:53:09.723Z,52.00
2023-04-05T07:55:38.308Z,52.00
2023-04-05T07:58:05.326Z,51.50
2023-04-05T08:00:32.348Z,51.60
2023-04-05T08:03:02.165Z,51.40
2023-04-05T08:05:29.706Z,51.30
2023-04-05T08:07:58.291Z,51.10
2023-04-05T08:10:25.735Z,51.20
2023-04-05T08:12:53.282Z,50.60
2023-04-05T08:15:20.232Z,51.20
2023-04-05T08:17:47.315Z,49.10
2023-04-05T08:20:14.280Z,49.30
2023-04-05T08:22:41.501Z,48.00
2023-04-05T08:25:09.318Z,48.80
2023-04-05T08:27:36.361Z,48.20
2023-04-05T08:30:04.189Z,47.10
2023-04-05T08:32:32.073Z,46.90
2023-04-05T08:34:59.067Z,47.60
2023-04-05T08:37:26.166Z,46.60
2023-04-05T08:39:53.196Z,46.40
2023-04-05T08:42:30.403Z,45.80
2023-04-05T08:44:59.863Z,46.10
2023-04-05T08:47:27.748Z,45.30
2023-04-05T08:49:54.816Z,45.40
2023-04-05T08:52:21.742Z,44.10
2023-04-05T08:54:50.731Z,44.80
2023-04-05T08:57:19.344Z,45.70
2023-04-05T08:59:46.873Z,44.20
2023-04-05T09:02:19.758Z,43.60
2023-04-05T09:04:48.603Z,44.40
2023-04-05T09:07:15.925Z,44.10
2023-04-05T09:09:47.445Z,44.30
2023-04-05T09:12:14.773Z,43.30
2023-04-05T09:14:42.997Z,44.10
2023-04-05T09:17:10.620Z,42.10
2023-04-05T09:19:38.041Z,43.30
2023-04-05T09:22:07.442Z,42.90
2023-04-05T09:24:47.014Z,40.80
2023-04-05T09:27:18.812Z,41.40
2023-04-05T09:29:51.114Z,43.10
2023-04-05T09:32:21.233Z,42.70
2023-04-05T09:34:48.700Z,40.30
2023-04-05T09:37:22.134Z,40.60
2023-04-05T09:39:51.683Z,38.20
2023-04-05T09:42:22.831Z,41.70
2023-04-05T09:45:05.254Z,41.10
2023-04-05T09:47:42.159Z,38.30
2023-04-05T09:50:15.753Z,39.90
2023-04-05T09:52:44.077Z,38.50
2023-04-05T09:55:11.692Z,40.70
2023-04-05T09:57:40.422Z,39.90
2023-04-05T10:00:18.933Z,39.30
2023-04-05T10:02:47.688Z,40.00
2023-04-05T10:05:15.840Z,40.50
2023-04-05T10:07:43.726Z,39.10
2023-04-05T10:10:12.887Z,40.30
2023-04-05T10:12:41.891Z,40.00
2023-04-05T10:15:10.662Z,40.30
2023-04-05T10:17:39.894Z,38.80
2023-04-05T10:20:17.210Z,40.80
2023-04-05T10:23:05.487Z,41.20
2023-04-05T10:25:47.738Z,42.50
2023-04-05T10:28:21.473Z,40.20
2023-04-05T10:30:53.074Z,40.30
2023-04-05T10:34:05.867Z,37.70
2023-04-05T10:36:58.478Z,40.00
2023-04-05T10:39:35.075Z,39.40
2023-04-05T10:42:11.657Z,38.20
2023-04-05T10:44:41.116Z,39.30
2023-04-05T10:47:14.004Z,34.80
2023-04-05T10:49:44.752Z,38.60
2023-04-05T10:52:11.945Z,41.00
2023-04-05T10:54:39.077Z,39.40
2023-04-05T10:57:10.179Z,40.20
2023-04-05T10:59:44.456Z,38.30
2023-04-05T11:02:12.335Z,40.30
2023-04-05T11:04:42.274Z,41.00
2023-04-05T11:07:17.642Z,38.60
2023-04-05T11:10:00.796Z,37.40
2023-04-05T11:12:47.045Z,37.80
2023-04-05T11:15:28.864Z,41.80
2023-04-05T11:18:06.272Z,40.00
2023-04-05T11:20:47.623Z,39.50
2023-04-05T11:23:17.311Z,39.90
2023-04-05T11:26:07.653Z,40.00
2023-04-05T11:28:42.281Z,39.20
2023-04-05T11:31:18.026Z,39.50
2023-04-05T11:33:47.670Z,36.60
2023-04-05T11:36:39.024Z,39.90
2023-04-05T11:39:23.449Z,40.50
2023-04-05T11:42:03.627Z,39.60
2023-04-05T11:44:48.309Z,39.50
2023-04-05T11:47:21.905Z,39.40
2023-04-05T11:49:52.054Z,38.10
2023-04-05T11:52:20.831Z,40.10
2023-04-05T11:54:49.221Z,39.70
2023-04-05T11:57:21.108Z,38.10
2023-04-05T11:59:53.670Z,41.00
2023-04-05T12:02:22.436Z,40.30
2023-04-05T12:04:59.806Z,43.90
2023-04-05T12:07:29.574Z,41.10
2023-04-05T12:10:03.689Z,41.10
2023-04-05T12:12:35.499Z,40.00
2023-04-05T12:15:04.160Z,39.70
2023-04-05T12:18:00.759Z,38.10
2023-04-05T12:20:28.608Z,40.10
2023-04-05T12:22:56.886Z,41.90
2023-04-05T12:25:24.910Z,42.30
2023-04-05T12:27:51.982Z,42.20
2023-04-05T12:30:22.025Z,40.60
2023-04-05T12:32:54.143Z,36.80
2023-04-05T12:35:24.600Z,40.30
2023-04-05T12:37:52.201Z,41.60
2023-04-05T12:40:23.457Z,42.30
2023-04-05T12:42:50.879Z,39.30
2023-04-05T12:45:18.604Z,40.60
2023-04-05T12:48:00.374Z,38.20
2023-04-05T12:50:31.709Z,37.50
2023-04-05T12:53:01.041Z,43.30
2023-04-05T12:55:29.591Z,42.50
2023-04-05T12:58:01.483Z,41.90
2023-04-05T13:00:31.019Z,33.60
2023-04-05T13:02:59.566Z,35.70
2023-04-05T13:05:29.070Z,40.90
2023-04-05T13:07:56.257Z,37.50
2023-04-05T13:10:24.890Z,43.60
2023-04-05T13:12:52.313Z,41.90
2023-04-05T13:15:19.853Z,39.80
2023-04-05T13:17:50.195Z,39.30
2023-04-05T13:20:18.175Z,40.70
2023-04-05T13:22:46.255Z,39.20
2023-04-05T13:25:14.825Z,38.50
2023-04-05T13:27:42.091Z,40.30
2023-04-05T13:30:09.916Z,41.20
2023-04-05T13:32:37.005Z,41.20
2023-04-05T13:35:05.698Z,38.60
2023-04-05T13:37:32.700Z,36.90
2023-04-05T13:39:59.683Z,39.50
2023-04-05T13:42:26.730Z,36.50
2023-04-05T13:44:53.741Z,39.10
2023-04-05T13:47:20.736Z,39.70
2023-04-05T13:49:47.680Z,38.50
2023-04-05T13:52:14.733Z,39.70
2023-04-05T13:54:41.950Z,39.00
2023-04-05T13:57:09.639Z,43.20
2023-04-05T13:59:36.754Z,39.80
2023-04-05T14:02:04.435Z,37.90
2023-04-05T14:04:31.606Z,38.50
2023-04-05T14:06:58.535Z,38.00
2023-04-05T14:09:25.652Z,38.00
2023-04-05T14:11:52.777Z,38.70
2023-04-05T14:14:19.689Z,36.30
2023-04-05T14:16:47.082Z,41.80
2023-04-05T14:19:14.144Z,43.90
2023-04-05T14:21:43.101Z,43.20
2023-04-05T14:24:10.161Z,39.80
2023-04-05T14:26:37.692Z,40.50
2023-04-05T14:29:05.224Z,40.70
2023-04-05T14:31:32.232Z,41.50
2023-04-05T14:33:59.772Z,38.00
2023-04-05T14:36:26.957Z,39.20
2023-04-05T14:38:53.904Z,40.30
2023-04-05T14:41:20.979Z,36.60
2023-04-05T14:43:48.077Z,37.90
2023-04-05T14:46:15.297Z,39.20
2023-04-05T14:48:42.520Z,39.70
2023-04-05T14:51:09.709Z,43.30
2023-04-05T14:53:37.332Z,35.90
2023-04-05T14:56:04.715Z,40.00
2023-04-05T14:58:34.019Z,41.50
2023-04-05T15:01:01.128Z,43.00
2023-04-05T15:03:29.160Z,39.10
2023-04-05T15:05:58.169Z,36.60
2023-04-05T15:08:25.161Z,38.50
2023-04-05T15:10:52.234Z,41.60
2023-04-05T15:13:20.859Z,37.30
2023-04-05T15:15:47.824Z,38.50
2023-04-05T15:18:14.879Z,38.70
2023-04-05T15:20:41.873Z,43.10
2023-04-05T15:23:08.872Z,39.40
2023-04-05T15:25:36.032Z,41.10
2023-04-05T15:28:06.699Z,41.40
2023-04-05T15:30:34.092Z,43.80
2023-04-05T15:33:01.553Z,43.60
2023-04-05T15:35:28.652Z,44.70
2023-04-05T15:37:55.601Z,38.90
2023-04-05T15:40:22.762Z,39.00
2023-04-05T15:42:49.743Z,38.30
2023-04-05T15:45:16.834Z,42.50
2023-04-05T15:47:44.105Z,40.00
2023-04-05T15:50:11.316Z,38.50
2023-04-05T15:52:38.443Z,36.40
2023-04-05T15:55:06.502Z,36.00
2023-04-05T15:57:33.449Z,37.20
2023-04-05T16:00:00.410Z,38.10
2023-04-05T16:02:27.503Z,39.10
2023-04-05T16:04:54.489Z,40.00
2023-04-05T16:07:21.887Z,37.80
2023-04-05T16:09:48.891Z,36.70
2023-04-05T16:12:16.202Z,38.00
2023-04-05T16:14:43.232Z,42.80
2023-04-05T16:17:10.422Z,37.40
2023-04-05T16:19:37.777Z,38.50
2023-04-05T16:22:04.810Z,39.70
2023-04-05T16:24:33.249Z,41.60
2023-04-05T16:27:00.368Z,37.50
2023-04-05T16:29:27.414Z,40.10
2023-04-05T16:31:54.615Z,38.70
2023-04-05T16:34:22.065Z,37.30
2023-04-05T16:36:49.366Z,41.80
2023-04-05T16:39:16.508Z,39.70
2023-04-05T16:41:43.840Z,39.00
2023-04-05T16:44:10.839Z,38.20
2023-04-05T16:46:38.136Z,38.20
2023-04-05T16:49:05.222Z,41.90
2023-04-05T16:51:34.628Z,37.70
2023-04-05T16:54:01.752Z,36.80
2023-04-05T16:56:28.814Z,38.20
2023-04-05T16:58:57.430Z,39.90
2023-04-05T17:01:24.817Z,39.10
2023-04-05T17:03:51.928Z,36.90
2023-04-05T17:06:18.957Z,38.20
2023-04-05T17:08:45.952Z,38.30
2023-04-05T17:11:12.986Z,37.40
2023-04-05T17:13:41.886Z,37.60
2023-04-05T17:16:09.125Z,36.70
2023-04-05T17:18:36.217Z,37.30
2023-04-05T17:21:03.291Z,36.50
2023-04-05T17:23:30.290Z,39.00
2023-04-05T17:25:57.201Z,37.80
2023-04-05T17:28:24.295Z,37.90
2023-04-05T17:30:51.298Z,38.50
2023-04-05T17:33:18.246Z,37.00
2023-04-05T17:35:45.197Z,37.40
2023-04-05T17:38:12.222Z,36.30
2023-04-05T17:40:40.203Z,36.60
2023-04-05T17:43:07.274Z,37.80
2023-04-05T17:45:34.269Z,38.70
2023-04-05T17:48:02.782Z,38.20
2023-04-05T17:50:30.077Z,35.40
2023-04-05T17:52:57.994Z,33.00
2023-04-05T17:55:25.790Z,34.00
2023-04-05T17:57:52.793Z,34.70
2023-04-05T18:00:19.883Z,35.10
2023-04-05T18:02:47.133Z,35.30
2023-04-05T18:05:14.284Z,36.20
2023-04-05T18:07:42.808Z,36.70
2023-04-05T18:10:10.360Z,37.60
2023-04-05T18:12:37.491Z,38.40
2023-04-05T18:15:04.759Z,40.60
2023-04-05T18:17:31.837Z,44.10
2023-04-05T18:19:58.955Z,41.60
2023-04-05T18:22:26.435Z,40.90
2023-04-05T18:24:53.554Z,40.90
2023-04-05T18:27:20.750Z,40.80
2023-04-05T18:29:48.719Z,40.70
2023-04-05T18:32:16.374Z,41.60
2023-04-05T18:34:43.855Z,40.50
2023-04-05T18:37:10.946Z,40.30
2023-04-05T18:39:40.871Z,43.90
2023-04-05T18:42:08.329Z,43.70
2023-04-05T18:44:35.355Z,43.40
2023-04-05T18:47:02.891Z,43.00
2023-04-05T18:49:29.924Z,43.30
2023-04-05T18:51:56.842Z,43.70
2023-04-05T18:54:24.325Z,43.40
2023-04-05T18:56:51.366Z,44.30
2023-04-05T18:59:20.705Z,44.50
2023-04-05T19:01:47.972Z,44.60
2023-04-05T19:04:16.384Z,45.40
2023-04-05T19:06:44.764Z,45.00
2023-04-05T19:09:12.103Z,45.40
2023-04-05T19:11:39.233Z,45.40
2023-04-05T19:14:06.335Z,45.50
2023-04-05T19:16:33.494Z,45.40
2023-04-05T19:19:00.593Z,44.50
2023-04-05T19:21:27.678Z,42.20
2023-04-05T19:23:56.058Z,44.20
2023-04-05T19:26:23.129Z,46.00
2023-04-05T19:28:50.117Z,43.90
2023-04-05T19:31:17.208Z,44.10
2023-04-05T19:33:44.376Z,44.60
2023-04-05T19:36:11.384Z,45.50
2023-04-05T19:38:40.164Z,46.20
2023-04-05T19:41:07.156Z,49.10
2023-04-05T19:43:36.713Z,47.80
2023-04-05T19:46:09.164Z,48.80
2023-04-05T19:48:41.445Z,48.50
2023-04-05T19:51:09.933Z,48.00
2023-04-05T19:53:51.036Z,47.50
2023-04-05T19:56:21.909Z,47.90
2023-04-05T19:59:00.984Z,47.40
2023-04-05T20:01:35.197Z,47.60
2023-04-05T20:04:20.488Z,47.80
2023-04-05T20:06:53.317Z,48.00
2023-04-05T20:09:24.837Z,48.10
2023-04-05T20:11:58.017Z,48.80
2023-04-05T20:14:52.076Z,48.40
2023-04-05T20:17:19.429Z,48.70
2023-04-05T20:19:57.694Z,48.30
2023-04-05T20:22:26.382Z,48.80
2023-04-05T20:24:53.668Z,48.80
2023-04-05T20:27:20.930Z,48.80
2023-04-05T20:29:47.910Z,48.80
2023-04-05T20:32:17.284Z,48.60
2023-04-05T20:34:46.165Z,48.70
2023-04-05T20:37:13.726Z,48.80
2023-04-05T20:39:44.134Z,48.90
2023-04-05T20:42:14.085Z,48.90
2023-04-05T20:44:41.421Z,49.10
2023-04-05T20:47:11.593Z,48.70
2023-04-05T20:49:38.888Z,48.70
2023-04-05T20:52:08.094Z,48.80
2023-04-05T20:54:35.512Z,49.00
2023-04-05T20:57:03.167Z,49.00
2023-04-05T20:59:30.585Z,49.10
2023-04-05T21:01:57.725Z,49.70
2023-04-05T21:04:25.641Z,49.50
2023-04-05T21:06:53.571Z,49.20
2023-04-05T21:09:20.638Z,49.70
2023-04-05T21:11:47.743Z,49.90
2023-04-05T21:14:14.808Z,50.00
2023-04-05T21:16:41.737Z,49.90
2023-04-05T21:19:08.921Z,50.30
2023-04-05T21:21:36.036Z,50.00
2023-04-05T21:24:03.221Z,50.10
2023-04-05T21:26:30.104Z,49.70
2023-04-05T21:28:57.208Z,50.00
2023-04-05T21:31:24.242Z,50.00
2023-04-05T21:33:51.221Z,49.60
2023-04-05T21:36:18.232Z,49.80
2023-04-05T21:38:45.227Z,50.00
2023-04-05T21:41:12.134Z,50.00
2023-04-05T21:43:39.100Z,49.40
2023-04-05T21:46:06.155Z,49.50
2023-04-05T21:48:33.121Z,49.40
2023-04-05T21:51:00.252Z,49.70
2023-04-05T21:53:27.461Z,49.90
2023-04-05T21:55:54.498Z,49.60
2023-04-05T21:58:21.512Z,48.90
2023-04-05T22:00:48.456Z,48.80
2023-04-05T22:03:15.811Z,47.80
2023-04-05T22:05:42.774Z,47.90
2023-04-05T22:08:09.905Z,47.90
2023-04-05T22:10:38.143Z,47.90
2023-04-05T22:13:05.240Z,47.80
2023-04-05T22:15:32.306Z,47.70
2023-04-05T22:17:59.301Z,47.10
2023-04-05T22:20:26.492Z,46.80
2023-04-05T22:22:53.501Z,46.80
2023-04-05T22:25:20.590Z,47.00
2023-04-05T22:27:47.563Z,47.10
2023-04-05T22:30:14.539Z,46.30
2023-04-05T22:32:41.537Z,46.80
2023-04-05T22:35:08.925Z,46.80
2023-04-05T22:37:37.955Z,47.00
2023-04-05T22:40:05.419Z,46.70
2023-04-05T22:42:32.425Z,46.30
2023-04-05T22:44:59.378Z,47.30
2023-04-05T22:47:26.456Z,46.10
2023-04-05T22:49:53.722Z,46.70
2023-04-05T22:52:20.762Z,46.50
2023-04-05T22:54:47.784Z,46.50
2023-04-05T22:57:14.846Z,46.10
2023-04-05T22:59:41.876Z,46.10
2023-04-05T23:02:09.799Z,45.70
2023-04-05T23:04:36.779Z,46.40
2023-04-05T23:07:03.868Z,46.70
2023-04-05T23:09:30.986Z,46.00
2023-04-05T23:11:57.924Z,46.10
2023-04-05T23:14:24.876Z,46.60
2023-04-05T23:16:51.799Z,47.00
2023-04-05T23:19:18.717Z,46.10
2023-04-05T23:21:45.730Z,45.80
2023-04-05T23:24:12.685Z,45.70
2023-04-05T23:26:39.799Z,46.10
2023-04-05T23:29:06.917Z,44.80
2023-04-05T23:31:34.324Z,46.80
2023-04-05T23:34:01.280Z,47.10
2023-04-05T23:36:28.858Z,46.90
2023-04-05T23:38:56.125Z,47.40
2023-04-05T23:41:23.091Z,46.90
2023-04-05T23:43:50.565Z,46.80
2023-04-05T23:46:17.626Z,46.40
2023-04-05T23:48:44.774Z,46.10
2023-04-05T23:51:11.779Z,46.40
2023-04-05T23:53:38.734Z,46.50
2023-04-05T23:56:06.242Z,47.30
2023-04-05T23:58:33.162Z,47.50
